createdAt,value
2023-05-02T00:00:36.396Z,35.52
2023-05-02T00:01:36.358Z,35.52
2023-05-02T00:02:36.417Z,35.53
2023-05-02T00:03:36.470Z,35.53
2023-05-02T00:04:36.482Z,35.52
2023-05-02T00:05:37.311Z,35.51
2023-05-02T00:06:36.393Z,35.53
2023-05-02T00:07:36.305Z,35.52
2023-05-02T00:08:36.328Z,35.55
2023-05-02T00:09:36.268Z,35.54
2023-05-02T00:10:37.190Z,35.53
2023-05-02T00:11:36.252Z,35.54
2023-05-02T00:12:36.257Z,35.53
2023-05-02T00:13:36.223Z,35.54
2023-05-02T00:14:36.251Z,35.52
2023-05-02T00:15:36.230Z,35.53
2023-05-02T00:16:37.155Z,35.50
2023-05-02T00:17:36.186Z,35.50
2023-05-02T00:18:36.184Z,35.50
2023-05-02T00:19:36.133Z,35.52
2023-05-02T00:20:36.177Z,35.50
2023-05-02T00:21:36.143Z,35.51
2023-05-02T00:22:37.056Z,35.49
2023-05-02T00:23:36.119Z,35.49
2023-05-02T00:24:36.076Z,35.48
2023-05-02T00:25:36.094Z,35.46
2023-05-02T00:26:36.075Z,35.44
2023-05-02T00:27:37.010Z,35.47
2023-05-02T00:28:36.035Z,35.48
2023-05-02T00:29:36.077Z,35.48
2023-05-02T00:30:36.016Z,35.50
2023-05-02T00:31:36.130Z,35.50
2023-05-02T00:32:36.081Z,35.51
2023-05-02T00:33:36.934Z,35.51
2023-05-02T00:34:35.963Z,35.50
2023-05-02T00:35:35.940Z,35.50
2023-05-02T00:36:35.954Z,35.48
2023-05-02T00:37:35.942Z,35.46
2023-05-02T00:38:36.849Z,35.46
2023-05-02T00:39:35.878Z,35.47
2023-05-02T00:40:35.914Z,35.49
2023-05-02T00:41:35.873Z,35.51
2023-05-02T00:42:35.839Z,35.51
2023-05-02T00:43:35.845Z,35.50
2023-05-02T00:44:36.742Z,35.51
2023-05-02T00:45:35.821Z,35.52
2023-05-02T00:46:35.924Z,35.52
2023-05-02T00:47:35.883Z,35.53
2023-05-02T00:48:35.792Z,35.52
2023-05-02T00:49:36.680Z,35.50
2023-05-02T00:50:35.784Z,35.48
2023-05-02T00:51:35.736Z,35.48
2023-05-02T00:52:35.713Z,35.46
2023-05-02T00:53:35.735Z,35.45
2023-05-02T00:54:35.706Z,35.44
2023-05-02T00:55:36.633Z,35.46
2023-05-02T00:56:35.656Z,35.46
2023-05-02T00:57:35.664Z,35.48
2023-05-02T00:58:35.645Z,35.49
2023-05-02T00:59:35.624Z,35.52
2023-05-02T01:00:35.645Z,35.53
2023-05-02T01:01:36.600Z,35.52
2023-05-02T01:02:35.783Z,35.53
2023-05-02T01:03:35.732Z,35.55
2023-05-02T01:04:35.572Z,35.54
2023-05-02T01:05:35.612Z,35.52
2023-05-02T01:06:35.704Z,35.52
2023-05-02T01:07:36.488Z,35.54
2023-05-02T01:08:35.570Z,35.53
2023-05-02T01:09:35.525Z,35.54
2023-05-02T01:10:35.498Z,35.52
2023-05-02T01:11:35.563Z,35.50
2023-05-02T01:12:35.506Z,35.52
2023-05-02T01:13:36.427Z,35.51
2023-05-02T01:14:35.480Z,35.52
2023-05-02T01:15:35.470Z,35.53
2023-05-02T01:16:35.551Z,35.50
2023-05-02T01:17:35.427Z,35.49
2023-05-02T01:18:36.317Z,35.48
2023-05-02T01:19:35.402Z,35.47
2023-05-02T01:20:35.330Z,35.47
2023-05-02T01:21:35.378Z,35.45
2023-05-02T01:22:35.329Z,35.45
2023-05-02T01:23:36.420Z,35.45
2023-05-02T01:24:35.346Z,35.44
2023-05-02T01:25:35.332Z,35.43
2023-05-02T01:26:35.279Z,35.42
2023-05-02T01:27:35.262Z,35.40
2023-05-02T01:28:35.259Z,35.37
2023-05-02T01:29:36.223Z,35.36
2023-05-02T01:30:35.311Z,35.35
2023-05-02T01:31:35.408Z,35.36
2023-05-02T01:32:35.220Z,35.34
2023-05-02T01:33:35.182Z,35.37
2023-05-02T01:34:35.174Z,35.36
2023-05-02T01:35:36.157Z,35.36
2023-05-02T01:36:35.204Z,35.37
2023-05-02T01:37:35.160Z,35.39
2023-05-02T01:38:35.184Z,35.39
2023-05-02T01:39:35.144Z,35.41
2023-05-02T01:40:36.046Z,35.44
2023-05-02T01:41:35.085Z,35.45
2023-05-02T01:42:35.102Z,35.46
2023-05-02T01:43:35.113Z,35.45
2023-05-02T01:44:35.065Z,35.47
2023-05-02T01:45:35.044Z,35.49
2023-05-02T01:46:36.042Z,35.49
2023-05-02T01:47:35.033Z,35.48
2023-05-02T01:48:34.998Z,35.48
2023-05-02T01:49:35.037Z,35.50
2023-05-02T01:50:34.981Z,35.50
2023-05-02T01:51:35.890Z,35.51
2023-05-02T01:52:34.945Z,35.52
2023-05-02T01:53:34.978Z,35.52
2023-05-02T01:54:34.995Z,35.52
2023-05-02T01:55:35.039Z,35.52
2023-05-02T01:56:35.850Z,35.52
2023-05-02T01:57:34.882Z,35.52
2023-05-02T01:58:34.863Z,35.53
2023-05-02T01:59:34.925Z,35.53
2023-05-02T02:00:34.880Z,35.52
2023-05-02T02:01:35.853Z,35.52
2023-05-02T02:02:34.863Z,35.53
2023-05-02T02:03:34.859Z,35.53
2023-05-02T02:04:34.969Z,35.53
2023-05-02T02:05:34.800Z,35.53
2023-05-02T02:06:34.801Z,35.54
2023-05-02T02:07:35.712Z,35.54
2023-05-02T02:08:34.754Z,35.55
2023-05-02T02:09:34.762Z,35.56
2023-05-02T02:10:34.755Z,35.56
2023-05-02T02:11:34.710Z,35.59
2023-05-02T02:12:35.631Z,35.59
2023-05-02T02:13:34.729Z,35.61
2023-05-02T02:14:34.695Z,35.62
2023-05-02T02:15:34.696Z,35.63
2023-05-02T02:16:34.709Z,35.64
2023-05-02T02:17:35.615Z,35.65
2023-05-02T02:18:34.603Z,35.67
2023-05-02T02:19:34.654Z,35.68
2023-05-02T02:20:34.608Z,35.70
2023-05-02T02:21:34.576Z,35.71
2023-05-02T02:22:35.491Z,35.72
2023-05-02T02:23:34.596Z,35.73
2023-05-02T02:24:34.563Z,35.74
2023-05-02T02:25:34.554Z,35.74
2023-05-02T02:26:34.520Z,35.75
2023-05-02T02:27:35.465Z,35.78
2023-05-02T02:28:34.479Z,35.76
2023-05-02T02:29:34.506Z,35.78
2023-05-02T02:30:34.509Z,35.78
2023-05-02T02:31:34.662Z,35.80
2023-05-02T02:32:35.416Z,35.80
2023-05-02T02:33:34.465Z,35.79
2023-05-02T02:34:34.442Z,35.81
2023-05-02T02:35:34.439Z,35.80
2023-05-02T02:36:34.368Z,35.81
2023-05-02T02:37:34.475Z,35.79
2023-05-02T02:38:35.323Z,35.81
2023-05-02T02:39:34.401Z,35.83
2023-05-02T02:40:34.340Z,35.84
2023-05-02T02:41:34.393Z,35.85
2023-05-02T02:42:34.392Z,35.86
2023-05-02T02:43:35.225Z,35.87
2023-05-02T02:44:34.281Z,35.89
2023-05-02T02:45:34.347Z,35.90
2023-05-02T02:46:34.412Z,35.90
2023-05-02T02:47:34.258Z,35.90
2023-05-02T02:48:35.185Z,35.90
2023-05-02T02:49:34.215Z,35.90
2023-05-02T02:50:34.257Z,35.91
2023-05-02T02:51:34.508Z,35.92
2023-05-02T02:52:34.216Z,35.92
2023-05-02T02:53:34.174Z,35.90
2023-05-02T02:54:35.072Z,35.91
2023-05-02T02:55:34.153Z,35.92
2023-05-02T02:56:34.141Z,35.92
2023-05-02T02:57:34.118Z,35.93
2023-05-02T02:58:34.102Z,35.93
2023-05-02T02:59:35.002Z,35.94
2023-05-02T03:00:34.086Z,35.92
2023-05-02T03:01:34.164Z,35.93
2023-05-02T03:02:34.128Z,35.93
2023-05-02T03:03:34.069Z,35.94
2023-05-02T03:04:34.051Z,35.92
2023-05-02T03:05:34.972Z,35.92
2023-05-02T03:06:34.040Z,35.93
2023-05-02T03:07:33.979Z,35.92
2023-05-02T03:08:33.990Z,35.93
2023-05-02T03:09:34.050Z,35.94
2023-05-02T03:10:33.979Z,35.94
2023-05-02T03:11:34.912Z,35.94
2023-05-02T03:12:33.935Z,35.92
2023-05-02T03:13:33.956Z,35.93
2023-05-02T03:14:33.880Z,35.94
2023-05-02T03:15:33.885Z,35.94
2023-05-02T03:16:34.044Z,35.94
2023-05-02T03:17:34.795Z,35.92
2023-05-02T03:18:33.871Z,35.93
2023-05-02T03:19:33.840Z,35.94
2023-05-02T03:20:33.863Z,35.94
2023-05-02T03:21:33.890Z,35.93
2023-05-02T03:22:33.833Z,35.95
2023-05-02T03:23:34.786Z,35.96
2023-05-02T03:24:33.772Z,35.96
2023-05-02T03:25:33.774Z,35.95
2023-05-02T03:26:33.803Z,35.98
2023-05-02T03:27:33.721Z,36.00
2023-05-02T03:28:33.722Z,35.99
2023-05-02T03:29:34.671Z,36.00
2023-05-02T03:30:33.673Z,36.01
2023-05-02T03:31:33.818Z,36.02
2023-05-02T03:32:33.761Z,36.04
2023-05-02T03:33:33.698Z,36.03
2023-05-02T03:34:34.550Z,36.04
2023-05-02T03:35:33.647Z,36.05
2023-05-02T03:36:33.665Z,36.04
2023-05-02T03:37:33.603Z,36.05
2023-05-02T03:38:33.610Z,36.05
2023-05-02T03:39:34.557Z,36.03
2023-05-02T03:40:33.550Z,36.02
2023-05-02T03:41:33.575Z,36.01
2023-05-02T03:42:33.598Z,36.02
2023-05-02T03:43:33.512Z,36.00
2023-05-02T03:44:34.533Z,36.01
2023-05-02T03:45:33.558Z,35.99
2023-05-02T03:46:33.550Z,35.99
2023-05-02T03:47:33.477Z,35.99
2023-05-02T03:48:33.464Z,35.98
2023-05-02T03:49:33.477Z,35.98
2023-05-02T03:50:34.435Z,35.98
2023-05-02T03:51:33.419Z,35.97
2023-05-02T03:52:33.506Z,35.97
2023-05-02T03:53:33.453Z,35.96
2023-05-02T03:54:33.412Z,35.95
2023-05-02T03:55:34.312Z,35.94
2023-05-02T03:56:33.380Z,35.94
2023-05-02T03:57:33.358Z,35.92
2023-05-02T03:58:33.566Z,35.93
2023-05-02T03:59:33.337Z,35.90
2023-05-02T04:00:34.263Z,35.90
2023-05-02T04:01:33.402Z,35.89
2023-05-02T04:02:33.359Z,35.88
2023-05-02T04:03:33.380Z,35.87
2023-05-02T04:04:33.302Z,35.84
2023-05-02T04:05:34.236Z,35.82
2023-05-02T04:06:33.295Z,35.81
2023-05-02T04:07:33.297Z,35.80
2023-05-02T04:08:33.324Z,35.79
2023-05-02T04:09:33.186Z,35.78
2023-05-02T04:10:34.248Z,35.76
2023-05-02T04:11:34.107Z,35.75
2023-05-02T04:12:33.128Z,35.73
2023-05-02T04:13:33.168Z,35.74
2023-05-02T04:14:33.145Z,35.70
2023-05-02T04:15:33.119Z,35.70
2023-05-02T04:16:33.115Z,35.70
2023-05-02T04:17:34.148Z,35.70
2023-05-02T04:18:33.178Z,35.68
2023-05-02T04:19:33.045Z,35.67
2023-05-02T04:20:33.099Z,35.66
2023-05-02T04:21:33.016Z,35.66
2023-05-02T04:22:33.020Z,35.64
2023-05-02T04:23:33.944Z,35.63
2023-05-02T04:24:33.060Z,35.62
2023-05-02T04:25:32.968Z,35.59
2023-05-02T04:26:32.993Z,35.59
2023-05-02T04:27:32.941Z,35.55
2023-05-02T04:28:33.943Z,35.53
2023-05-02T04:29:33.031Z,35.50
2023-05-02T04:30:32.939Z,35.47
2023-05-02T04:31:32.960Z,35.44
2023-05-02T04:32:32.925Z,35.43
2023-05-02T04:33:32.910Z,35.41
2023-05-02T04:34:33.809Z,35.39
2023-05-02T04:35:32.888Z,35.37
2023-05-02T04:36:32.851Z,35.33
2023-05-02T04:37:32.872Z,35.32
2023-05-02T04:38:32.825Z,35.31
2023-05-02T04:39:32.793Z,35.28
2023-05-02T04:40:33.789Z,35.25
2023-05-02T04:41:32.779Z,35.25
2023-05-02T04:42:32.751Z,35.23
2023-05-02T04:43:32.760Z,35.21
2023-05-02T04:44:32.735Z,35.20
2023-05-02T04:45:32.746Z,35.18
2023-05-02T04:46:33.768Z,35.15
2023-05-02T04:48:15.153Z,34.84
2023-05-02T04:49:15.113Z,35.16
2023-05-02T04:50:15.171Z,35.23
2023-05-02T04:51:17.182Z,35.25
2023-05-02T04:52:15.287Z,35.25
2023-05-02T04:53:15.125Z,35.26
2023-05-02T04:54:15.118Z,35.26
2023-05-02T04:55:15.050Z,35.23
2023-05-02T04:56:15.079Z,35.20
2023-05-02T04:57:15.983Z,35.16
2023-05-02T04:58:15.022Z,35.15
2023-05-02T04:59:15.014Z,35.11
2023-05-02T05:00:14.987Z,35.11
2023-05-02T05:01:15.109Z,35.09
2023-05-02T05:02:16.016Z,35.08
2023-05-02T05:03:14.989Z,35.07
2023-05-02T05:04:15.096Z,35.07
2023-05-02T05:05:14.997Z,35.06
2023-05-02T05:06:14.977Z,35.07
2023-05-02T05:07:15.819Z,35.08
2023-05-02T05:08:14.884Z,35.09
2023-05-02T05:09:14.893Z,35.14
2023-05-02T05:10:14.833Z,35.17
2023-05-02T05:11:15.069Z,35.19
2023-05-02T05:12:14.840Z,35.21
2023-05-02T05:13:15.740Z,35.26
2023-05-02T05:14:14.800Z,35.26
2023-05-02T05:15:14.794Z,35.29
2023-05-02T05:16:14.846Z,35.31
2023-05-02T05:17:14.797Z,35.33
2023-05-02T05:18:14.791Z,35.31
2023-05-02T05:19:15.660Z,35.32
2023-05-02T05:20:14.738Z,35.31
2023-05-02T05:21:14.707Z,35.30
2023-05-02T05:22:14.694Z,35.31
2023-05-02T05:23:14.680Z,35.32
2023-05-02T05:24:14.719Z,35.32
2023-05-02T05:25:15.634Z,35.31
2023-05-02T05:26:14.630Z,35.30
2023-05-02T05:27:14.626Z,35.27
2023-05-02T05:28:14.664Z,35.25
2023-05-02T05:29:14.602Z,35.23
2023-05-02T05:30:14.626Z,35.21
2023-05-02T05:31:16.839Z,35.21
2023-05-02T05:32:14.756Z,35.19
2023-05-02T05:33:14.599Z,35.17
2023-05-02T05:34:14.646Z,35.14
2023-05-02T05:35:14.587Z,35.11
2023-05-02T05:36:15.498Z,35.11
2023-05-02T05:37:14.514Z,35.10
2023-05-02T05:38:14.551Z,35.08
2023-05-02T05:39:14.523Z,35.09
2023-05-02T05:40:14.499Z,35.09
2023-05-02T05:41:15.381Z,35.10
2023-05-02T05:42:14.457Z,35.10
2023-05-02T05:43:14.410Z,35.09
2023-05-02T05:44:14.455Z,35.08
2023-05-02T05:45:14.415Z,35.06
2023-05-02T05:46:15.328Z,35.07
2023-05-02T05:47:14.429Z,35.06
2023-05-02T05:48:14.411Z,35.04
2023-05-02T05:49:14.348Z,35.06
2023-05-02T05:50:14.351Z,35.07
2023-05-02T05:51:14.349Z,35.07
2023-05-02T05:52:15.326Z,35.06
2023-05-02T05:53:14.304Z,35.05
2023-05-02T05:54:14.293Z,35.02
2023-05-02T05:55:14.341Z,35.01
2023-05-02T05:56:14.258Z,34.98
2023-05-02T05:57:14.260Z,34.94
2023-05-02T05:58:15.169Z,34.91
2023-05-02T05:59:14.320Z,34.90
2023-05-02T06:00:14.313Z,34.89
2023-05-02T06:01:14.294Z,34.90
2023-05-02T06:02:14.262Z,34.88
2023-05-02T06:03:14.291Z,34.87
2023-05-02T06:04:15.157Z,34.85
2023-05-02T06:05:14.305Z,34.84
2023-05-02T06:06:14.165Z,34.84
2023-05-02T06:07:14.149Z,34.82
2023-05-02T06:08:14.135Z,34.80
2023-05-02T06:09:14.163Z,34.79
2023-05-02T06:10:15.031Z,34.78
2023-05-02T06:11:14.108Z,34.77
2023-05-02T06:12:14.052Z,34.72
2023-05-02T06:13:14.082Z,34.68
2023-05-02T06:14:14.133Z,34.66
2023-05-02T06:15:14.022Z,34.64
2023-05-02T06:16:15.159Z,34.63
2023-05-02T06:17:14.025Z,34.63
2023-05-02T06:18:14.062Z,34.63
2023-05-02T06:19:14.021Z,34.61
2023-05-02T06:20:14.394Z,34.61
2023-05-02T06:23:49.306Z,34.30
2023-05-02T06:24:49.287Z,34.54
2023-05-02T06:25:49.333Z,34.51
2023-05-02T06:26:49.263Z,34.47
2023-05-02T06:27:49.307Z,34.44
2023-05-02T06:28:49.239Z,34.41
2023-05-02T06:29:50.194Z,34.40
2023-05-02T06:30:49.202Z,34.39
2023-05-02T06:31:49.253Z,34.36
2023-05-02T06:32:49.235Z,34.32
2023-05-02T06:33:49.143Z,34.30
2023-05-02T06:34:49.147Z,34.25
2023-05-02T06:35:50.081Z,34.22
2023-05-02T06:36:49.192Z,34.17
2023-05-02T06:37:49.162Z,34.13
2023-05-02T06:38:49.217Z,34.08
2023-05-02T06:39:49.077Z,34.01
2023-05-02T06:40:49.104Z,33.97
2023-05-02T06:41:50.099Z,33.90
2023-05-02T06:42:49.092Z,33.83
2023-05-02T06:43:49.040Z,33.75
2023-05-02T06:44:49.033Z,33.71
2023-05-02T06:45:49.006Z,33.70
2023-05-02T06:46:49.115Z,33.70
2023-05-02T06:47:50.009Z,33.71
2023-05-02T06:48:48.954Z,33.75
2023-05-02T06:49:48.961Z,33.85
2023-05-02T06:50:48.981Z,33.93
2023-05-02T06:51:48.999Z,33.96
2023-05-02T06:52:48.945Z,33.96
2023-05-02T06:53:49.829Z,33.93
2023-05-02T06:54:48.968Z,33.85
2023-05-02T06:55:48.863Z,33.78
2023-05-02T06:56:48.916Z,33.74
2023-05-02T06:57:48.874Z,33.66
2023-05-02T06:58:49.783Z,33.56
2023-05-02T06:59:48.818Z,33.50
2023-05-02T07:00:48.998Z,33.48
2023-05-02T07:01:48.862Z,33.50
2023-05-02T07:02:48.840Z,33.32
2023-05-02T07:03:48.802Z,33.15
2023-05-02T07:04:49.673Z,32.97
2023-05-02T07:05:48.792Z,32.86
2023-05-02T07:06:48.928Z,32.91
2023-05-02T07:07:48.757Z,33.01
2023-05-02T07:08:48.712Z,33.05
2023-05-02T07:09:48.725Z,33.15
2023-05-02T07:10:49.639Z,33.23
2023-05-02T07:11:49.675Z,33.10
2023-05-02T07:12:49.338Z,33.09
2023-05-02T07:13:48.724Z,33.10
2023-05-02T07:14:48.706Z,32.97
2023-05-02T07:15:49.574Z,33.06
2023-05-02T07:16:48.698Z,33.16
2023-05-02T07:17:48.645Z,33.12
2023-05-02T07:18:48.594Z,33.00
2023-05-02T07:19:48.589Z,32.93
2023-05-02T07:20:48.553Z,32.98
2023-05-02T07:21:49.480Z,32.94
2023-05-02T07:22:48.505Z,32.88
2023-05-02T07:23:48.697Z,32.82
2023-05-02T07:24:48.555Z,32.90
2023-05-02T07:25:48.531Z,33.03
2023-05-02T07:26:48.505Z,33.05
2023-05-02T07:27:49.427Z,32.93
2023-05-02T07:28:48.468Z,32.79
2023-05-02T07:29:48.447Z,32.72
2023-05-02T07:30:48.432Z,32.63
2023-05-02T07:31:48.517Z,32.61
2023-05-02T07:32:48.485Z,32.50
2023-05-02T07:33:49.325Z,32.47
2023-05-02T07:34:48.376Z,32.55
2023-05-02T07:35:48.383Z,32.74
2023-05-02T07:36:48.379Z,32.77
2023-05-02T07:37:48.342Z,32.59
2023-05-02T07:38:48.331Z,32.46
2023-05-02T07:39:49.245Z,32.47
2023-05-02T07:40:48.361Z,32.59
2023-05-02T07:41:48.271Z,32.71
2023-05-02T07:42:48.307Z,32.70
2023-05-02T07:43:48.255Z,32.75
2023-05-02T07:44:48.302Z,32.78
2023-05-02T07:45:49.234Z,32.82
2023-05-02T07:46:48.413Z,32.86
2023-05-02T07:47:48.246Z,32.99
2023-05-02T07:48:48.221Z,33.14
2023-05-02T07:49:48.170Z,33.23
2023-05-02T07:50:49.116Z,33.24
2023-05-02T07:51:48.161Z,33.26
2023-05-02T07:52:48.149Z,33.30
2023-05-02T07:53:48.155Z,33.30
2023-05-02T07:54:48.134Z,33.27
2023-05-02T07:55:49.078Z,33.23
2023-05-02T07:56:48.121Z,33.22
2023-05-02T07:57:48.091Z,33.22
2023-05-02T07:58:48.065Z,33.23
2023-05-02T07:59:48.055Z,33.25
2023-05-02T08:00:48.963Z,33.29
2023-05-02T08:01:48.034Z,33.28
2023-05-02T08:02:48.180Z,33.27
2023-05-02T08:03:48.113Z,33.28
2023-05-02T08:04:48.076Z,33.27
2023-05-02T08:05:48.939Z,33.33
2023-05-02T08:06:48.053Z,33.39
2023-05-02T08:07:47.992Z,33.45
2023-05-02T08:08:47.921Z,33.44
2023-05-02T08:09:47.911Z,33.37
2023-05-02T08:10:48.867Z,33.24
2023-05-02T08:11:47.889Z,33.15
2023-05-02T08:12:47.930Z,33.10
2023-05-02T08:13:47.848Z,33.07
2023-05-02T08:14:47.867Z,32.91
2023-05-02T08:15:47.942Z,32.70
2023-05-02T08:16:48.930Z,32.67
2023-05-02T08:17:47.939Z,32.62
2023-05-02T08:18:47.816Z,32.58
2023-05-02T08:19:47.832Z,32.57
2023-05-02T08:20:47.798Z,32.30
2023-05-02T08:21:47.791Z,31.94
2023-05-02T08:22:48.680Z,31.70
2023-05-02T08:23:47.814Z,31.61
2023-05-02T08:24:47.751Z,31.74
2023-05-02T08:25:47.712Z,31.89
2023-05-02T08:26:47.713Z,31.93
2023-05-02T08:27:48.689Z,31.93
2023-05-02T08:28:47.672Z,32.05
2023-05-02T08:29:47.704Z,32.28
2023-05-02T08:30:47.736Z,32.40
2023-05-02T08:31:47.667Z,32.40
2023-05-02T08:32:48.619Z,32.57
2023-05-02T08:33:47.618Z,32.77
2023-05-02T08:34:47.634Z,32.91
2023-05-02T08:35:47.579Z,32.96
2023-05-02T08:36:47.567Z,32.92
2023-05-02T08:37:47.622Z,32.96
2023-05-02T08:38:48.534Z,32.95
2023-05-02T08:39:47.554Z,32.96
2023-05-02T08:40:47.526Z,33.03
2023-05-02T08:41:47.537Z,33.12
2023-05-02T08:42:47.515Z,33.15
2023-05-02T08:43:47.541Z,33.21
2023-05-02T08:44:48.423Z,33.27
2023-05-02T08:45:47.461Z,33.25
2023-05-02T08:46:47.585Z,33.23
2023-05-02T08:47:47.478Z,33.28
2023-05-02T08:48:47.455Z,33.38
2023-05-02T08:49:47.436Z,33.48
2023-05-02T08:50:48.540Z,33.61
2023-05-02T08:51:47.400Z,33.73
2023-05-02T08:52:47.364Z,33.87
2023-05-02T08:53:47.360Z,34.03
2023-05-02T08:54:47.369Z,34.16
2023-05-02T08:55:48.576Z,34.24
2023-05-02T08:56:47.362Z,34.30
2023-05-02T08:57:47.297Z,34.33
2023-05-02T08:58:47.333Z,34.36
2023-05-02T08:59:47.344Z,34.43
2023-05-02T09:00:47.269Z,34.51
2023-05-02T09:01:54.427Z,34.55
2023-05-02T09:02:47.311Z,34.58
2023-05-02T09:03:47.729Z,34.54
2023-05-02T09:04:47.283Z,34.40
2023-05-02T09:05:47.193Z,34.20
2023-05-02T09:06:47.343Z,33.89
2023-05-02T09:07:48.114Z,33.59
2023-05-02T09:08:47.611Z,33.33
2023-05-02T09:09:47.119Z,33.12
2023-05-02T09:10:47.150Z,32.98
2023-05-02T09:11:47.131Z,32.89
2023-05-02T09:12:47.102Z,32.79
2023-05-02T09:13:48.214Z,32.69
2023-05-02T09:14:47.130Z,32.65
2023-05-02T09:15:47.088Z,32.67
2023-05-02T09:16:47.065Z,32.65
2023-05-02T09:17:47.059Z,32.61
2023-05-02T09:18:47.062Z,32.69
2023-05-02T09:19:47.945Z,32.92
2023-05-02T09:20:47.007Z,33.27
2023-05-02T09:21:46.985Z,33.60
2023-05-02T09:22:46.968Z,33.87
2023-05-02T09:23:47.036Z,34.10
2023-05-02T09:24:46.974Z,34.29
2023-05-02T09:25:47.902Z,34.44
2023-05-02T09:26:46.976Z,34.58
2023-05-02T09:27:46.950Z,34.67
2023-05-02T09:28:46.927Z,34.75
2023-05-02T09:29:46.887Z,34.80
2023-05-02T09:30:46.961Z,34.83
2023-05-02T09:31:55.492Z,34.81
2023-05-02T09:32:48.367Z,34.77
2023-05-02T09:33:46.892Z,34.60
2023-05-02T09:34:46.822Z,34.35
2023-05-02T09:35:46.862Z,34.08
2023-05-02T09:36:46.797Z,33.90
2023-05-02T09:37:47.707Z,33.66
2023-05-02T09:38:46.856Z,33.48
2023-05-02T09:39:46.745Z,33.39
2023-05-02T09:40:46.778Z,33.33
2023-05-02T09:41:46.838Z,33.29
2023-05-02T09:42:46.767Z,33.28
2023-05-02T09:43:47.640Z,33.27
2023-05-02T09:44:46.691Z,33.19
2023-05-02T09:45:46.728Z,33.06
2023-05-02T09:46:46.646Z,32.79
2023-05-02T09:47:46.661Z,32.54
2023-05-02T09:48:46.631Z,32.42
2023-05-02T09:49:47.576Z,32.37
2023-05-02T09:50:46.615Z,32.37
2023-05-02T09:51:46.593Z,32.39
2023-05-02T09:52:46.668Z,32.37
2023-05-02T09:53:46.622Z,32.27
2023-05-02T09:54:46.997Z,32.26
2023-05-02T09:55:47.543Z,32.26
2023-05-02T09:56:46.542Z,32.21
2023-05-02T09:57:46.503Z,32.23
2023-05-02T09:58:46.528Z,32.43
2023-05-02T09:59:46.499Z,32.55
2023-05-02T10:00:46.491Z,32.55
2023-05-02T10:01:47.392Z,32.68
2023-05-02T10:02:46.465Z,33.00
2023-05-02T10:03:46.460Z,33.28
2023-05-02T10:04:46.462Z,33.53
2023-05-02T10:05:46.433Z,33.67
2023-05-02T10:06:46.545Z,33.68
2023-05-02T10:07:47.320Z,33.66
2023-05-02T10:08:46.415Z,33.64
2023-05-02T10:09:46.377Z,33.57
2023-05-02T10:10:46.373Z,33.42
2023-05-02T10:11:46.355Z,33.23
2023-05-02T10:12:46.320Z,33.08
2023-05-02T10:13:47.231Z,32.96
2023-05-02T10:14:46.305Z,32.98
2023-05-02T10:15:46.319Z,33.02
2023-05-02T10:16:46.274Z,33.13
2023-05-02T10:17:46.322Z,33.28
2023-05-02T10:18:46.234Z,33.35
2023-05-02T10:19:47.174Z,33.21
2023-05-02T10:20:46.243Z,33.04
2023-05-02T10:21:46.230Z,32.83
2023-05-02T10:22:46.219Z,32.81
2023-05-02T10:23:46.276Z,32.85
2023-05-02T10:24:47.128Z,32.87
2023-05-02T10:25:46.202Z,33.02
2023-05-02T10:26:46.156Z,33.26
2023-05-02T10:27:46.160Z,33.55
2023-05-02T10:28:46.836Z,33.81
2023-05-02T10:29:47.057Z,33.97
2023-05-02T10:30:46.105Z,34.07
2023-05-02T10:31:46.163Z,34.09
2023-05-02T10:32:46.071Z,34.09
2023-05-02T10:33:46.062Z,34.13
2023-05-02T10:34:46.033Z,34.13
2023-05-02T10:35:46.952Z,34.17
2023-05-02T10:36:45.999Z,34.17
2023-05-02T10:37:46.054Z,34.19
2023-05-02T10:38:46.018Z,34.15
2023-05-02T10:39:45.982Z,33.99
2023-05-02T10:40:45.962Z,33.81
2023-05-02T10:41:46.858Z,33.68
2023-05-02T10:42:46.077Z,33.60
2023-05-02T10:43:45.948Z,33.61
2023-05-02T10:44:45.953Z,33.72
2023-05-02T10:45:45.881Z,33.89
2023-05-02T10:46:45.906Z,33.94
2023-05-02T10:48:44.908Z,33.31
2023-05-02T10:49:44.904Z,33.61
2023-05-02T10:50:44.934Z,33.62
2023-05-02T10:51:44.816Z,33.75
2023-05-02T10:52:45.722Z,33.91
2023-05-02T10:53:44.907Z,34.00
2023-05-02T10:54:44.799Z,34.02
2023-05-02T10:55:44.913Z,34.05
2023-05-02T10:56:44.922Z,34.11
2023-05-02T10:57:45.695Z,34.07
2023-05-02T10:58:44.784Z,33.85
2023-05-02T10:59:44.741Z,33.55
2023-05-02T11:00:44.720Z,33.44
2023-05-02T11:01:44.789Z,33.37
2023-05-02T11:02:44.802Z,33.30
2023-05-02T11:03:45.672Z,33.23
2023-05-02T11:04:44.733Z,33.16
2023-05-02T11:05:44.620Z,33.06
2023-05-02T11:06:44.754Z,33.02
2023-05-02T11:07:44.628Z,33.07
2023-05-02T11:08:44.600Z,33.19
2023-05-02T11:09:45.481Z,33.27
2023-05-02T11:10:44.558Z,33.31
2023-05-02T11:11:44.611Z,33.34
2023-05-02T11:12:44.703Z,33.36
2023-05-02T11:13:44.820Z,33.35
2023-05-02T11:14:50.940Z,33.28
2023-05-02T11:15:44.564Z,33.10
2023-05-02T11:16:44.608Z,32.83
2023-05-02T11:17:44.545Z,32.56
2023-05-02T11:18:44.540Z,32.39
2023-05-02T11:19:44.447Z,32.27
2023-05-02T11:20:45.455Z,32.13
2023-05-02T11:21:44.513Z,32.12
2023-05-02T11:22:44.421Z,32.14
2023-05-02T11:23:44.597Z,32.04
2023-05-02T11:24:44.479Z,31.87
2023-05-02T11:25:44.524Z,31.68
2023-05-02T11:26:45.398Z,31.06
2023-05-02T11:27:44.475Z,30.29
2023-05-02T11:28:44.457Z,29.57
2023-05-02T11:29:44.313Z,29.19
2023-05-02T11:30:44.336Z,29.22
2023-05-02T11:31:45.318Z,29.23
2023-05-02T11:32:44.383Z,29.37
2023-05-02T11:33:44.272Z,29.47
2023-05-02T11:34:44.274Z,29.73
2023-05-02T11:35:44.270Z,30.15
2023-05-02T11:36:44.272Z,30.47
2023-05-02T11:37:45.172Z,30.61
2023-05-02T11:38:44.242Z,30.59
2023-05-02T11:39:44.252Z,30.56
2023-05-02T11:40:44.266Z,30.48
2023-05-02T11:41:44.232Z,30.38
2023-05-02T11:42:45.133Z,30.40
2023-05-02T11:43:44.233Z,30.26
2023-05-02T11:44:44.150Z,29.89
2023-05-02T11:45:44.227Z,29.76
2023-05-02T11:46:44.215Z,29.75
2023-05-02T11:47:45.132Z,29.76
2023-05-02T11:48:44.118Z,29.79
2023-05-02T11:49:44.089Z,29.92
2023-05-02T11:50:49.306Z,29.96
2023-05-02T11:51:45.563Z,30.02
2023-05-02T11:52:44.982Z,30.07
2023-05-02T11:53:44.039Z,30.05
2023-05-02T11:54:44.079Z,29.99
2023-05-02T11:55:43.981Z,29.96
2023-05-02T11:56:44.148Z,29.88
2023-05-02T11:57:44.919Z,29.70
2023-05-02T11:58:43.949Z,29.88
2023-05-02T11:59:44.069Z,30.26
2023-05-02T12:00:43.999Z,30.62
2023-05-02T12:01:43.992Z,30.95
2023-05-02T12:02:43.993Z,31.10
2023-05-02T12:03:45.035Z,31.12
2023-05-02T12:04:43.923Z,31.12
2023-05-02T12:05:43.957Z,31.12
2023-05-02T12:06:43.899Z,31.18
2023-05-02T12:07:43.836Z,31.33
2023-05-02T12:08:43.858Z,31.47
2023-05-02T12:09:44.911Z,31.56
2023-05-02T12:10:43.845Z,31.68
2023-05-02T12:11:43.874Z,31.76
2023-05-02T12:12:43.777Z,31.79
2023-05-02T12:13:43.808Z,31.77
2023-05-02T12:14:44.781Z,31.84
2023-05-02T12:15:43.857Z,32.02
2023-05-02T12:16:43.866Z,32.12
2023-05-02T12:17:43.770Z,32.16
2023-05-02T12:18:43.725Z,32.05
2023-05-02T12:19:43.704Z,31.83
2023-05-02T12:20:44.717Z,31.56
2023-05-02T12:21:43.654Z,31.29
2023-05-02T12:22:43.719Z,30.98
2023-05-02T12:23:43.749Z,30.60
2023-05-02T12:24:43.694Z,30.52
2023-05-02T12:25:43.681Z,30.57
2023-05-02T12:26:44.582Z,30.38
2023-05-02T12:27:43.712Z,30.49
2023-05-02T12:28:43.606Z,30.66
2023-05-02T12:29:43.740Z,30.76
2023-05-02T12:30:43.728Z,30.90
2023-05-02T12:31:44.525Z,31.10
2023-05-02T12:32:44.672Z,31.24
2023-05-02T12:33:43.574Z,31.36
2023-05-02T12:34:43.626Z,31.30
2023-05-02T12:35:43.590Z,30.94
2023-05-02T12:36:43.507Z,30.45
2023-05-02T12:37:45.570Z,30.16
2023-05-02T12:38:43.505Z,29.82
2023-05-02T12:39:43.472Z,29.13
2023-05-02T12:40:43.515Z,27.59
2023-05-02T12:41:43.457Z,25.42
2023-05-02T12:42:43.388Z,23.54
2023-05-02T12:43:44.315Z,23.00
2023-05-02T12:44:43.458Z,22.42
2023-05-02T12:45:43.378Z,23.44
2023-05-02T12:46:43.440Z,23.27
2023-05-02T12:47:43.430Z,23.78
2023-05-02T12:48:44.231Z,24.38
2023-05-02T12:49:44.266Z,24.57
2023-05-02T12:50:43.305Z,25.12
2023-05-02T12:51:43.394Z,25.97
2023-05-02T12:52:43.272Z,26.52
2023-05-02T12:53:43.231Z,26.87
2023-05-02T12:54:44.647Z,27.22
2023-05-02T12:55:43.281Z,27.40
2023-05-02T12:56:43.234Z,25.83